createdAt,value
2019-02-16T00:01:22.630Z,0.70
2019-02-16T00:07:53.578Z,0.60
2019-02-16T00:14:24.283Z,0.60
2019-02-16T00:21:03.720Z,0.50
2019-02-16T00:24:21.222Z,0.50
2019-02-16T00:30:51.987Z,0.40
2019-02-16T00:33:40.213Z,0.40
2019-02-16T00:40:10.598Z,0.40
2019-02-16T00:43:34.824Z,0.50
2019-02-16T00:50:05.813Z,0.70
2019-02-16T00:53:30.023Z,0.70
2019-02-16T00:56:00.021Z,0.70
2019-02-16T01:02:30.950Z,0.40
2019-02-16T01:09:01.368Z,0.50
2019-02-16T01:15:32.424Z,0.40
2019-02-16T01:18:56.817Z,0.30
2019-02-16T01:25:27.586Z,0.30
2019-02-16T01:28:51.973Z,0.30
2019-02-16T01:35:22.156Z,0.20
2019-02-16T01:38:47.829Z,0.10
2019-02-16T01:41:18.230Z,0.10
2019-02-16T01:44:42.303Z,0.00
2019-02-16T01:51:13.543Z,0.00
2019-02-16T01:57:44.865Z,0.10
2019-02-16T02:04:15.425Z,0.00
2019-02-16T02:10:46.716Z,-0.10
2019-02-16T02:14:10.951Z,0.00
2019-02-16T02:20:41.865Z,0.10
2019-02-16T02:24:06.283Z,0.10
2019-02-16T02:30:37.133Z,0.00
2019-02-16T02:34:01.623Z,0.00
2019-02-16T02:40:32.699Z,0.00
2019-02-16T02:43:56.901Z,-0.10
2019-02-16T02:50:27.748Z,-0.20
2019-02-16T02:53:51.978Z,-0.30
2019-02-16T03:00:22.890Z,-0.30
2019-02-16T03:06:53.843Z,-0.30
2019-02-16T03:10:18.606Z,-0.40
2019-02-16T03:16:49.417Z,-0.30
2019-02-16T03:20:14.033Z,-0.40
2019-02-16T03:26:56.648Z,-0.30
2019-02-16T03:30:21.061Z,-0.30
2019-02-16T03:37:28.305Z,-0.40
2019-02-16T03:40:52.599Z,-0.40
2019-02-16T03:47:23.297Z,-0.50
2019-02-16T03:50:47.602Z,-0.50
2019-02-16T03:57:18.405Z,-0.60
2019-02-16T04:03:49.255Z,-0.70
2019-02-16T04:10:20.076Z,-0.90
2019-02-16T04:16:50.892Z,-1.00
2019-02-16T04:23:21.016Z,-1.00
2019-02-16T04:26:45.399Z,-1.00
2019-02-16T04:33:16.651Z,-1.00
2019-02-16T04:39:47.623Z,-1.00
2019-02-16T04:43:11.871Z,-1.00
2019-02-16T04:49:42.347Z,-1.00
2019-02-16T04:53:06.907Z,-1.00
2019-02-16T04:59:37.642Z,-1.00
2019-02-16T05:02:51.712Z,-1.00
2019-02-16T05:05:21.729Z,-1.00
2019-02-16T05:11:52.078Z,-1.10
2019-02-16T05:18:22.425Z,-1.10
2019-02-16T05:21:46.629Z,-1.10
2019-02-16T05:28:17.199Z,-1.00
2019-02-16T05:34:46.958Z,-1.10
2019-02-16T05:41:17.436Z,-1.30
2019-02-16T05:47:48.405Z,-1.10
2019-02-16T05:54:19.400Z,-1.20
2019-02-16T05:57:44.206Z,-1.20
2019-02-16T06:04:15.061Z,-1.20
2019-02-16T06:10:45.669Z,-1.20
2019-02-16T06:17:16.169Z,-1.30
2019-02-16T06:23:46.757Z,-1.30
2019-02-16T06:27:11.383Z,-1.20
2019-02-16T06:33:42.031Z,-1.20
2019-02-16T06:40:12.306Z,-1.20
2019-02-16T06:43:36.946Z,-1.10
2019-02-16T06:50:07.663Z,-1.20
2019-02-16T06:56:39.808Z,-1.20
2019-02-16T07:03:10.871Z,-1.20
2019-02-16T07:05:40.990Z,-1.20
2019-02-16T07:52:28.488Z,0.20
2019-02-16T08:00:01.588Z,0.40
2019-02-16T08:06:45.817Z,0.90
2019-02-16T08:09:48.565Z,1.10
2019-02-16T08:12:40.158Z,1.30
2019-02-16T08:15:25.154Z,1.40
2019-02-16T08:22:07.829Z,1.60
2019-02-16T08:29:33.084Z,1.80
2019-02-16T08:36:22.673Z,2.20
2019-02-16T08:43:01.961Z,2.50
2019-02-16T08:49:46.012Z,2.80
2019-02-16T08:56:27.839Z,3.20
2019-02-16T08:58:59.628Z,3.40
2019-02-16T09:02:23.943Z,3.50
2019-02-16T09:09:05.594Z,3.80
2019-02-16T09:12:00.066Z,3.80
2019-02-16T09:18:35.012Z,3.80
2019-02-16T09:25:16.936Z,3.60
2019-02-16T09:28:43.490Z,3.70
2019-02-16T09:35:30.878Z,3.50
2019-02-16T09:42:15.467Z,3.70
2019-02-16T09:45:42.113Z,3.80
2019-02-16T09:52:22.122Z,4.10
2019-02-16T09:58:56.415Z,4.30
2019-02-16T10:02:22.355Z,4.40
2019-02-16T10:09:05.822Z,4.30
2019-02-16T10:11:42.108Z,4.20
2019-02-16T10:18:28.134Z,4.30
2019-02-16T10:21:10.415Z,4.30
2019-02-16T10:24:35.267Z,4.40
2019-02-16T10:31:07.884Z,4.40
2019-02-16T10:37:59.517Z,4.70
2019-02-16T10:44:32.489Z,4.80
2019-02-16T10:51:05.605Z,5.00
2019-02-16T10:54:33.654Z,5.10
2019-02-16T11:01:17.467Z,5.30
2019-02-16T11:11:25.896Z,5.60
2019-02-16T11:47:33.367Z,6.80
2019-02-16T11:50:10.650Z,6.80
2019-02-16T11:57:05.111Z,7.10
2019-02-16T12:00:29.803Z,7.10
2019-02-16T12:07:04.223Z,7.20
2019-02-16T12:13:45.034Z,7.20
2019-02-16T12:17:10.651Z,7.20
2019-02-16T12:23:43.924Z,7.20
2019-02-16T12:27:08.965Z,7.30
2019-02-16T12:33:57.433Z,7.50
2019-02-16T12:36:41.082Z,7.80
2019-02-16T12:40:06.279Z,8.00
2019-02-16T12:42:37.952Z,8.10
2019-02-16T12:49:21.728Z,8.20
2019-02-16T12:52:47.693Z,8.40
2019-02-16T12:59:25.555Z,8.60
2019-02-16T13:02:50.126Z,8.80
2019-02-16T13:09:22.344Z,8.80
2019-02-16T13:15:55.556Z,8.90
2019-02-16T13:19:20.099Z,8.70
2019-02-16T13:26:01.745Z,8.80
2019-02-16T13:32:33.906Z,9.10
2019-02-16T13:39:24.629Z,9.30
2019-02-16T13:42:02.453Z,9.30
2019-02-16T13:44:50.459Z,9.20
2019-02-16T13:51:26.426Z,9.20
2019-02-16T13:54:50.637Z,9.10
2019-02-16T14:01:30.158Z,9.30
2019-02-16T14:08:11.994Z,9.40
2019-02-16T14:11:36.578Z,9.30
2019-02-16T14:18:08.562Z,9.20
2019-02-16T14:24:53.043Z,9.20
2019-02-16T14:28:20.621Z,9.10
2019-02-16T14:34:51.671Z,9.20
2019-02-16T14:38:16.458Z,9.20
2019-02-16T14:44:49.368Z,9.10
2019-02-16T14:51:20.097Z,9.10
2019-02-16T14:54:44.678Z,9.10
2019-02-16T15:01:15.682Z,9.10
2019-02-16T15:04:40.039Z,9.10
2019-02-16T15:11:11.067Z,9.20
2019-02-16T15:17:43.211Z,9.10
2019-02-16T15:21:07.624Z,9.00
2019-02-16T15:27:38.477Z,9.00
2019-02-16T15:31:02.927Z,9.00
2019-02-16T15:38:20.634Z,8.90
2019-02-16T15:44:50.898Z,8.90
2019-02-16T15:48:14.997Z,8.80
2019-02-16T15:54:45.681Z,8.70
2019-02-16T15:58:09.554Z,8.60
2019-02-16T16:04:39.188Z,8.40
2019-02-16T16:11:11.032Z,8.20
2019-02-16T16:17:43.431Z,8.00
2019-02-16T16:21:07.932Z,7.80
2019-02-16T16:27:42.769Z,7.60
2019-02-16T16:31:07.553Z,7.40
2019-02-16T16:37:49.785Z,7.10
2019-02-16T16:44:25.854Z,7.00
2019-02-16T16:47:15.674Z,6.80
2019-02-16T16:54:08.924Z,6.50
2019-02-16T17:00:57.213Z,6.10
2019-02-16T17:07:33.871Z,5.80
2019-02-16T17:10:58.986Z,5.60
2019-02-16T17:17:48.368Z,5.50
2019-02-16T17:24:24.497Z,5.30
2019-02-16T17:26:56.407Z,5.00
2019-02-16T17:33:46.795Z,4.80
2019-02-16T17:40:20.213Z,4.60
2019-02-16T17:42:55.482Z,4.50
2019-02-16T17:49:28.411Z,4.50
2019-02-16T17:56:00.872Z,4.70
2019-02-16T18:02:49.142Z,4.80
2019-02-16T18:06:08.965Z,4.70
2019-02-16T18:12:44.141Z,4.60
2019-02-16T18:19:24.068Z,4.40
2019-02-16T18:25:56.924Z,4.20
2019-02-16T18:32:32.842Z,4.20
2019-02-16T18:35:57.794Z,4.30
2019-02-16T18:42:30.186Z,4.50
2019-02-16T18:49:20.416Z,4.40
2019-02-16T18:55:58.844Z,4.40
2019-02-16T19:02:37.169Z,4.30
2019-02-16T19:05:23.512Z,4.30
2019-02-16T19:12:04.864Z,4.30
2019-02-16T19:15:30.169Z,4.20
2019-02-16T19:22:02.654Z,4.20
2019-02-16T19:28:53.652Z,3.90
2019-02-16T19:32:19.130Z,3.90
2019-02-16T19:38:58.132Z,3.90
2019-02-16T19:45:33.869Z,3.90
2019-02-16T19:48:57.015Z,3.90
2019-02-16T19:52:04.580Z,3.70
2019-02-16T19:58:57.047Z,3.50
2019-02-16T20:05:44.539Z,3.40
2019-02-16T20:12:30.995Z,3.50
2019-02-16T20:19:05.210Z,3.60
2019-02-16T20:29:51.731Z,3.50
2019-02-16T20:36:33.631Z,3.40
2019-02-16T20:43:16.757Z,3.10
2019-02-16T20:50:15.591Z,2.80
2019-02-16T22:37:58.368Z,1.40
2019-02-16T23:08:25.603Z,1.40
2019-02-16T23:10:55.401Z,1.60
2019-02-16T23:13:25.165Z,1.70
2019-02-16T23:15:54.999Z,1.70
2019-02-16T23:18:24.616Z,1.60
2019-02-16T23:20:54.344Z,1.70
2019-02-16T23:23:24.318Z,1.60
2019-02-16T23:25:53.911Z,1.50
2019-02-16T23:28:24.236Z,1.50
2019-02-16T23:30:53.984Z,1.40
2019-02-16T23:33:23.677Z,1.30
2019-02-16T23:35:53.403Z,1.20
2019-02-16T23:38:23.093Z,1.10
2019-02-16T23:40:52.836Z,1.00
2019-02-16T23:43:22.610Z,0.90
2019-02-16T23:45:55.835Z,0.90
2019-02-16T23:48:25.587Z,0.80
2019-02-16T23:50:55.271Z,0.90
2019-02-16T23:53:24.955Z,1.00
2019-02-16T23:55:54.549Z,1.00
2019-02-16T23:58:24.233Z,0.90
